createdAt,value
2018-05-21T00:00:35.150Z,8.10
2018-05-21T00:03:03.675Z,7.67
2018-05-21T00:05:32.204Z,7.13
2018-05-21T00:08:00.681Z,7.80
2018-05-21T00:10:29.200Z,7.40
2018-05-21T00:12:57.739Z,7.70
2018-05-21T00:15:26.249Z,7.60
2018-05-21T00:17:54.745Z,7.23
2018-05-21T00:20:23.276Z,7.80
2018-05-21T00:22:51.781Z,7.80
2018-05-21T00:25:20.275Z,8.17
2018-05-21T00:27:48.776Z,7.27
2018-05-21T00:30:17.244Z,7.60
2018-05-21T00:32:45.748Z,7.67
2018-05-21T00:35:14.270Z,7.90
2018-05-21T00:37:42.744Z,8.57
2018-05-21T00:40:11.264Z,8.20
2018-05-21T00:42:39.776Z,7.87
2018-05-21T00:45:08.247Z,8.03
2018-05-21T00:47:36.760Z,7.40
2018-05-21T00:50:05.324Z,7.60
2018-05-21T00:52:33.813Z,7.87
2018-05-21T00:55:13.988Z,7.93
2018-05-21T00:57:42.432Z,7.87
2018-05-21T01:00:10.986Z,7.43
2018-05-21T01:02:39.496Z,7.90
2018-05-21T01:05:07.980Z,8.07
2018-05-21T01:07:36.529Z,8.30
2018-05-21T01:10:05.060Z,8.07
2018-05-21T01:12:33.549Z,8.17
2018-05-21T01:15:02.050Z,8.30
2018-05-21T01:17:30.507Z,8.93
2018-05-21T01:19:59.896Z,8.77
2018-05-21T01:22:28.388Z,8.80
2018-05-21T01:24:56.918Z,8.27
2018-05-21T01:27:25.480Z,8.90
2018-05-21T01:29:54.016Z,9.20
2018-05-21T01:32:22.536Z,9.03
2018-05-21T01:34:51.013Z,9.07
2018-05-21T01:37:19.492Z,9.87
2018-05-21T01:39:48.009Z,10.00
2018-05-21T01:42:16.517Z,8.97
2018-05-21T01:44:45.018Z,9.53
2018-05-21T01:47:13.532Z,9.50
2018-05-21T01:49:42.038Z,9.07
2018-05-21T01:52:10.512Z,9.60
2018-05-21T01:54:38.993Z,9.53
2018-05-21T01:57:07.526Z,10.13
2018-05-21T01:59:36.012Z,10.17
2018-05-21T02:02:04.603Z,10.07
2018-05-21T02:04:33.089Z,9.67
2018-05-21T02:07:01.597Z,9.80
2018-05-21T02:09:30.133Z,9.97
2018-05-21T02:11:58.632Z,10.00
2018-05-21T02:14:27.149Z,9.20
2018-05-21T02:16:55.629Z,9.67
2018-05-21T02:19:24.161Z,9.93
2018-05-21T02:21:52.642Z,10.60
2018-05-21T02:24:21.141Z,10.70
2018-05-21T02:26:49.658Z,10.67
2018-05-21T02:29:18.189Z,10.57
2018-05-21T02:31:46.672Z,9.97
2018-05-21T02:34:15.196Z,10.07
2018-05-21T02:36:43.676Z,10.03
2018-05-21T02:39:12.152Z,9.93
2018-05-21T02:41:40.697Z,10.40
2018-05-21T02:44:09.196Z,9.87
2018-05-21T02:46:37.723Z,10.47
2018-05-21T02:49:06.238Z,10.90
2018-05-21T02:51:34.764Z,11.00
2018-05-21T02:54:03.288Z,10.53
2018-05-21T02:56:31.808Z,10.37
2018-05-21T02:59:00.332Z,10.53
2018-05-21T03:01:28.836Z,10.17
2018-05-21T03:03:57.364Z,11.27
2018-05-21T03:06:25.895Z,10.20
2018-05-21T03:08:54.400Z,11.00
2018-05-21T03:11:22.939Z,10.77
2018-05-21T03:13:51.433Z,10.27
2018-05-21T03:16:19.986Z,11.17
2018-05-21T03:18:48.512Z,11.10
2018-05-21T03:21:17.851Z,11.70
2018-05-21T03:23:46.395Z,11.93
2018-05-21T03:26:14.890Z,11.63
2018-05-21T03:28:43.380Z,11.60
2018-05-21T03:31:11.918Z,11.50
2018-05-21T03:33:40.433Z,11.47
2018-05-21T03:36:08.976Z,11.67
2018-05-21T03:38:37.456Z,11.30
2018-05-21T03:41:05.965Z,12.00
2018-05-21T03:43:34.513Z,12.13
2018-05-21T03:46:03.009Z,12.83
2018-05-21T03:48:32.335Z,11.83
2018-05-21T03:51:00.851Z,11.60
2018-05-21T03:53:29.355Z,11.67
2018-05-21T03:55:57.888Z,11.53
2018-05-21T03:58:38.166Z,10.33
2018-05-21T04:01:18.178Z,11.03
2018-05-21T04:03:56.316Z,11.20
2018-05-21T04:06:24.906Z,11.33
2018-05-21T04:08:53.464Z,11.50
2018-05-21T04:11:21.952Z,11.97
2018-05-21T04:13:50.444Z,12.83
2018-05-21T04:16:18.976Z,13.60
2018-05-21T04:18:47.571Z,12.80
2018-05-21T04:21:16.043Z,13.73
2018-05-21T04:23:44.562Z,13.30
2018-05-21T04:26:13.100Z,12.80
2018-05-21T04:28:41.585Z,13.07
2018-05-21T04:31:10.120Z,13.77
2018-05-21T04:33:38.612Z,12.83
2018-05-21T04:36:07.149Z,12.77
2018-05-21T04:38:35.648Z,12.57
2018-05-21T04:41:04.175Z,12.60
2018-05-21T04:43:32.669Z,12.53
2018-05-21T04:46:01.224Z,12.90
2018-05-21T04:48:29.735Z,12.47
2018-05-21T04:50:58.256Z,11.93
2018-05-21T04:53:26.793Z,12.10
2018-05-21T04:55:55.334Z,11.53
2018-05-21T04:58:23.888Z,12.20
2018-05-21T05:00:52.372Z,11.90
2018-05-21T05:03:20.877Z,11.70
2018-05-21T05:05:49.444Z,10.63
2018-05-21T05:08:17.941Z,11.07
2018-05-21T05:10:46.569Z,10.80
2018-05-21T05:13:15.160Z,11.37
2018-05-21T05:15:43.661Z,11.30
2018-05-21T05:18:12.221Z,10.70
2018-05-21T05:20:40.716Z,11.37
2018-05-21T05:23:09.281Z,10.87
2018-05-21T05:25:37.799Z,12.10
2018-05-21T05:28:06.374Z,11.77
2018-05-21T05:30:34.929Z,12.10
2018-05-21T05:33:03.456Z,16.17
2018-05-21T05:35:31.978Z,12.47
2018-05-21T05:38:00.537Z,12.83
2018-05-21T05:40:29.078Z,13.03
2018-05-21T05:42:57.584Z,13.03
2018-05-21T05:45:26.120Z,14.37
2018-05-21T05:47:54.628Z,14.23
2018-05-21T05:50:23.180Z,13.53
2018-05-21T05:52:51.669Z,13.50
2018-05-21T05:55:20.178Z,13.13
2018-05-21T05:57:48.717Z,12.57
2018-05-21T06:00:17.206Z,12.77
2018-05-21T06:02:45.820Z,13.90
2018-05-21T06:05:14.389Z,12.43
2018-05-21T06:07:42.922Z,12.87
2018-05-21T06:10:11.493Z,13.33
2018-05-21T06:12:40.049Z,13.33
2018-05-21T06:15:08.611Z,16.17
2018-05-21T06:17:37.168Z,15.17
2018-05-21T06:20:05.773Z,13.20
2018-05-21T06:22:34.305Z,11.97
2018-05-21T06:25:02.931Z,12.63
2018-05-21T06:27:31.502Z,12.37
2018-05-21T06:30:00.048Z,13.73
2018-05-21T06:32:28.589Z,12.93
2018-05-21T06:34:57.096Z,11.33
2018-05-21T06:37:25.634Z,12.40
2018-05-21T06:39:54.237Z,11.33
2018-05-21T06:42:22.780Z,11.30
2018-05-21T06:44:51.271Z,12.63
2018-05-21T06:47:19.941Z,12.63
2018-05-21T06:49:48.446Z,17.60
2018-05-21T06:52:16.984Z,14.03
2018-05-21T06:54:45.470Z,13.37
2018-05-21T06:57:14.015Z,14.53
2018-05-21T06:59:42.537Z,13.07
2018-05-21T07:02:11.101Z,12.80
2018-05-21T07:04:39.660Z,12.60
2018-05-21T07:07:08.206Z,12.70
2018-05-21T07:09:36.736Z,13.93
2018-05-21T07:12:05.257Z,13.23
2018-05-21T07:14:33.795Z,12.17
2018-05-21T07:17:02.353Z,12.80
2018-05-21T07:19:30.842Z,13.40
2018-05-21T07:21:59.372Z,13.00
2018-05-21T07:24:27.876Z,12.87
2018-05-21T07:26:56.453Z,12.47
2018-05-21T07:29:24.944Z,12.63
2018-05-21T07:31:53.536Z,12.90
2018-05-21T07:34:22.153Z,11.87
2018-05-21T07:36:50.753Z,12.50
2018-05-21T07:39:19.252Z,17.13
2018-05-21T07:41:47.797Z,12.97
2018-05-21T07:44:16.280Z,12.97
2018-05-21T07:46:44.772Z,11.63
2018-05-21T07:49:13.342Z,11.10
2018-05-21T07:51:41.943Z,10.53
2018-05-21T07:54:10.453Z,11.40
2018-05-21T07:56:39.052Z,12.33
2018-05-21T07:59:07.666Z,12.37
2018-05-21T08:01:36.173Z,12.23
2018-05-21T08:04:04.709Z,13.10
2018-05-21T08:06:33.276Z,12.93
2018-05-21T08:09:01.756Z,13.70
2018-05-21T08:11:30.358Z,12.97
2018-05-21T08:13:58.860Z,13.90
2018-05-21T08:16:27.381Z,13.73
2018-05-21T08:18:55.893Z,13.60
2018-05-21T08:21:24.425Z,14.10
2018-05-21T08:23:52.922Z,13.40
2018-05-21T08:26:21.481Z,13.47
2018-05-21T08:28:49.958Z,14.03
2018-05-21T08:31:18.492Z,14.40
2018-05-21T08:33:47.042Z,14.63
2018-05-21T08:36:15.541Z,13.83
2018-05-21T08:38:44.034Z,14.83
2018-05-21T08:41:12.560Z,15.17
2018-05-21T08:43:41.132Z,13.43
2018-05-21T08:46:09.708Z,14.67
2018-05-21T08:48:38.266Z,13.77
2018-05-21T08:51:06.821Z,12.83
2018-05-21T08:53:35.772Z,12.53
2018-05-21T08:56:04.451Z,13.67
2018-05-21T08:58:33.006Z,10.27
2018-05-21T09:01:01.582Z,10.50
2018-05-21T09:03:30.122Z,10.67
2018-05-21T09:05:58.609Z,9.60
2018-05-21T09:08:27.129Z,7.93
2018-05-21T09:10:55.668Z,7.10
2018-05-21T09:13:24.140Z,6.80
2018-05-21T09:15:52.619Z,6.33
2018-05-21T09:18:21.145Z,6.53
2018-05-21T09:20:49.957Z,6.43
2018-05-21T09:23:18.501Z,6.70
2018-05-21T09:25:47.028Z,6.93
2018-05-21T09:28:15.624Z,6.67
2018-05-21T09:30:44.116Z,6.57
2018-05-21T09:33:12.699Z,6.90
2018-05-21T09:35:41.304Z,6.63
2018-05-21T09:38:09.879Z,6.70
2018-05-21T09:40:38.408Z,7.40
2018-05-21T09:43:06.936Z,6.97
2018-05-21T09:45:35.420Z,6.97
2018-05-21T09:48:03.998Z,6.50
2018-05-21T09:50:32.469Z,7.33
2018-05-21T09:53:00.980Z,7.33
2018-05-21T09:55:29.507Z,6.57
2018-05-21T09:57:58.001Z,7.33
2018-05-21T10:00:26.571Z,7.43
2018-05-21T10:02:55.062Z,7.20
2018-05-21T10:05:23.589Z,7.10
2018-05-21T10:07:52.101Z,6.57
2018-05-21T10:10:20.633Z,8.17
2018-05-21T10:12:49.109Z,6.93
2018-05-21T10:15:17.632Z,6.53
2018-05-21T10:17:46.147Z,6.43
2018-05-21T10:20:14.661Z,6.10
2018-05-21T10:22:43.136Z,7.40
2018-05-21T10:25:11.673Z,6.90
2018-05-21T10:27:40.185Z,7.07
2018-05-21T10:30:08.740Z,6.43
2018-05-21T10:32:37.232Z,6.70
2018-05-21T10:35:05.741Z,8.60
2018-05-21T10:37:35.113Z,6.40
2018-05-21T10:40:04.170Z,6.83
2018-05-21T10:42:32.672Z,6.40
2018-05-21T10:45:01.180Z,6.90
2018-05-21T10:47:29.711Z,6.60
2018-05-21T10:49:58.193Z,7.83
2018-05-21T10:52:26.673Z,7.70
2018-05-21T10:54:55.205Z,6.93
2018-05-21T10:57:23.720Z,7.27
2018-05-21T10:59:52.207Z,7.43
2018-05-21T11:02:20.771Z,7.40
2018-05-21T11:04:49.252Z,6.40
2018-05-21T11:07:17.854Z,6.90
2018-05-21T11:09:46.419Z,7.00
2018-05-21T11:12:15.014Z,6.37
2018-05-21T11:14:43.453Z,6.47
2018-05-21T11:17:12.080Z,4.90
2018-05-21T11:19:40.596Z,6.13
2018-05-21T11:22:09.091Z,5.53
2018-05-21T11:24:37.689Z,6.53
2018-05-21T11:27:06.154Z,5.60
2018-05-21T11:29:34.660Z,6.97
2018-05-21T11:32:03.216Z,6.57
2018-05-21T11:34:31.693Z,5.97
2018-05-21T11:37:00.217Z,8.57
2018-05-21T11:39:28.732Z,6.37
2018-05-21T11:41:57.218Z,5.33
2018-05-21T11:44:25.749Z,5.97
2018-05-21T11:46:54.228Z,5.80
2018-05-21T11:49:22.826Z,5.97
2018-05-21T11:51:51.733Z,5.80
2018-05-21T11:54:20.351Z,6.23
2018-05-21T11:56:48.837Z,6.63
2018-05-21T11:59:17.924Z,5.93
2018-05-21T12:01:46.440Z,5.60
2018-05-21T12:04:14.920Z,5.50
2018-05-21T12:06:43.400Z,5.93
2018-05-21T12:09:11.913Z,5.77
2018-05-21T12:11:40.409Z,5.77
2018-05-21T12:14:08.921Z,5.13
2018-05-21T12:16:37.396Z,5.43
2018-05-21T12:19:05.927Z,5.20
2018-05-21T12:21:34.432Z,4.80
2018-05-21T12:24:02.905Z,4.37
2018-05-21T12:26:31.507Z,4.60
2018-05-21T12:28:59.989Z,4.47
2018-05-21T12:31:28.500Z,5.20
2018-05-21T12:33:56.978Z,4.50
2018-05-21T12:36:25.506Z,4.50
2018-05-21T12:38:54.064Z,4.40
2018-05-21T12:41:22.548Z,4.27
2018-05-21T12:43:51.577Z,4.00
2018-05-21T12:46:20.058Z,3.97
2018-05-21T12:48:48.577Z,4.27
2018-05-21T12:51:17.057Z,4.27
2018-05-21T12:53:45.538Z,4.27
2018-05-21T12:56:14.066Z,4.03
2018-05-21T12:58:42.601Z,5.70
2018-05-21T13:01:11.153Z,4.47
2018-05-21T13:03:39.633Z,4.33
2018-05-21T13:06:08.121Z,4.60
2018-05-21T13:08:36.636Z,4.23
2018-05-21T13:11:05.140Z,4.07
2018-05-21T13:13:33.678Z,3.93
2018-05-21T13:16:02.184Z,3.90
2018-05-21T13:18:30.676Z,4.00
2018-05-21T13:20:59.193Z,3.70
2018-05-21T13:23:27.685Z,3.53
2018-05-21T13:25:56.225Z,3.90
2018-05-21T13:28:24.733Z,4.27
2018-05-21T13:30:53.224Z,4.00
2018-05-21T13:33:21.733Z,3.67
2018-05-21T13:35:50.241Z,3.83
2018-05-21T13:38:18.765Z,4.10
2018-05-21T13:40:47.264Z,3.47
2018-05-21T13:43:15.873Z,5.03
2018-05-21T13:45:44.353Z,4.33
2018-05-21T13:48:12.906Z,4.17
2018-05-21T13:50:41.425Z,4.40
2018-05-21T13:53:09.975Z,4.50
2018-05-21T13:55:38.509Z,4.53
2018-05-21T13:58:07.016Z,4.60
2018-05-21T14:00:35.498Z,4.60
2018-05-21T14:03:04.084Z,4.50
2018-05-21T14:05:32.574Z,4.27
2018-05-21T14:08:01.126Z,3.90
2018-05-21T14:10:29.621Z,3.93
2018-05-21T14:12:58.124Z,4.23
2018-05-21T14:15:26.628Z,4.20
2018-05-21T14:17:55.105Z,4.47
2018-05-21T14:20:23.807Z,4.20
2018-05-21T14:22:52.299Z,4.63
2018-05-21T14:25:20.902Z,6.50
2018-05-21T14:27:49.376Z,4.40
2018-05-21T14:30:17.889Z,3.53
2018-05-21T14:32:46.373Z,4.30
2018-05-21T14:35:14.886Z,3.90
2018-05-21T14:37:43.365Z,3.80
2018-05-21T14:40:11.911Z,4.83
2018-05-21T14:42:40.479Z,4.17
2018-05-21T14:45:08.965Z,3.60
2018-05-21T14:47:37.509Z,3.90
2018-05-21T14:50:06.042Z,3.90
2018-05-21T14:52:34.557Z,3.10
2018-05-21T14:55:03.135Z,3.80
2018-05-21T14:57:31.650Z,4.40
2018-05-21T15:00:00.129Z,4.90
2018-05-21T15:02:28.637Z,4.03
2018-05-21T15:04:57.157Z,3.93
2018-05-21T15:07:25.687Z,4.10
2018-05-21T15:09:54.222Z,4.10
2018-05-21T15:12:22.732Z,4.00
2018-05-21T15:14:51.201Z,4.27
2018-05-21T15:17:19.712Z,4.50
2018-05-21T15:19:48.224Z,3.87
2018-05-21T15:22:16.782Z,3.60
2018-05-21T15:24:45.236Z,3.87
2018-05-21T15:27:13.703Z,4.30
2018-05-21T15:29:42.238Z,4.33
2018-05-21T15:32:10.714Z,4.10
2018-05-21T15:34:39.221Z,3.80
2018-05-21T15:37:07.705Z,4.40
2018-05-21T15:39:36.212Z,4.10
2018-05-21T15:42:04.709Z,4.00
2018-05-21T15:44:33.216Z,4.10
2018-05-21T15:47:01.748Z,4.20
2018-05-21T15:49:30.220Z,4.00
2018-05-21T15:51:58.724Z,3.90
2018-05-21T15:54:27.193Z,3.73
2018-05-21T15:56:55.683Z,3.80
2018-05-21T15:59:24.177Z,4.30
2018-05-21T16:01:52.696Z,7.70
2018-05-21T16:04:21.211Z,8.50
2018-05-21T16:06:49.737Z,8.50
2018-05-21T16:09:18.266Z,8.80
2018-05-21T16:11:46.762Z,9.27
2018-05-21T16:14:15.292Z,9.60
2018-05-21T16:16:43.767Z,9.77
2018-05-21T16:19:12.279Z,9.33
2018-05-21T16:21:40.749Z,9.33
2018-05-21T16:24:09.282Z,9.93
2018-05-21T16:26:37.793Z,9.87
2018-05-21T16:29:06.277Z,9.67
2018-05-21T16:31:34.796Z,9.10
2018-05-21T16:34:03.356Z,9.30
2018-05-21T16:36:31.828Z,9.50
2018-05-21T16:39:00.416Z,8.90
2018-05-21T16:41:29.005Z,9.20
2018-05-21T16:43:57.537Z,9.37
2018-05-21T16:46:26.061Z,9.87
2018-05-21T16:48:54.733Z,10.63
2018-05-21T16:51:23.252Z,10.33
2018-05-21T16:53:51.807Z,10.53
2018-05-21T16:56:20.304Z,11.00
2018-05-21T16:58:48.824Z,11.50
2018-05-21T17:01:17.341Z,11.07
2018-05-21T17:03:45.873Z,10.60
2018-05-21T17:06:14.356Z,11.43
2018-05-21T17:08:42.893Z,11.20
2018-05-21T17:11:11.386Z,12.03
2018-05-21T17:13:39.913Z,13.13
2018-05-21T17:16:08.453Z,11.40
2018-05-21T17:18:36.933Z,10.77
2018-05-21T17:21:05.476Z,11.13
2018-05-21T17:23:33.993Z,10.80
2018-05-21T17:26:02.474Z,11.47
2018-05-21T17:28:31.000Z,11.00
2018-05-21T17:30:59.491Z,11.93
2018-05-21T17:33:28.052Z,12.07
2018-05-21T17:35:56.534Z,12.70
2018-05-21T17:38:25.043Z,12.90
2018-05-21T17:40:53.581Z,13.50
2018-05-21T17:43:22.050Z,12.83
2018-05-21T17:45:50.538Z,13.20
2018-05-21T17:48:19.092Z,12.17
2018-05-21T17:50:47.586Z,13.97
2018-05-21T17:53:16.105Z,13.53
2018-05-21T17:55:44.607Z,13.40
2018-05-21T17:58:13.137Z,11.43
2018-05-21T18:00:41.652Z,11.10
2018-05-21T18:03:10.215Z,9.87
2018-05-21T18:05:38.685Z,6.83
2018-05-21T18:08:07.200Z,9.33
2018-05-21T18:10:35.682Z,10.23
2018-05-21T18:13:04.227Z,7.00
2018-05-21T18:15:32.710Z,6.77
2018-05-21T18:18:01.213Z,6.70
2018-05-21T18:20:29.728Z,6.63
2018-05-21T18:22:59.154Z,5.33
2018-05-21T18:25:27.675Z,5.13
2018-05-21T18:27:56.187Z,4.90
2018-05-21T18:30:24.655Z,5.00
2018-05-21T18:32:53.165Z,5.10
2018-05-21T18:35:21.707Z,5.60
2018-05-21T18:37:50.225Z,5.50
2018-05-21T18:40:18.745Z,5.77
2018-05-21T18:42:47.290Z,6.00
2018-05-21T18:45:15.814Z,6.67
2018-05-21T18:47:44.320Z,5.93
2018-05-21T18:50:12.832Z,6.20
2018-05-21T18:52:41.352Z,6.07
2018-05-21T18:55:09.983Z,5.70
2018-05-21T18:57:38.503Z,6.30
2018-05-21T19:00:07.141Z,5.83
2018-05-21T19:02:35.555Z,6.13
2018-05-21T19:05:04.143Z,5.90
2018-05-21T19:07:32.655Z,5.37
2018-05-21T19:10:01.129Z,5.23
2018-05-21T19:12:29.687Z,19.33
2018-05-21T19:14:58.236Z,11.30
2018-05-21T19:17:26.689Z,6.13
2018-05-21T19:19:55.208Z,4.77
2018-05-21T19:22:23.717Z,5.20
2018-05-21T19:24:52.189Z,4.80
2018-05-21T19:27:20.696Z,5.27
2018-05-21T19:29:49.204Z,4.87
2018-05-21T19:32:17.671Z,4.67
2018-05-21T19:34:46.188Z,5.23
2018-05-21T19:37:14.706Z,4.50
2018-05-21T19:39:43.181Z,4.47
2018-05-21T19:42:11.668Z,4.40
2018-05-21T19:44:40.187Z,4.90
2018-05-21T19:47:08.660Z,4.97
2018-05-21T19:49:37.129Z,4.30
2018-05-21T19:52:05.668Z,4.50
2018-05-21T19:54:34.174Z,4.50
2018-05-21T19:57:02.734Z,4.13
2018-05-21T19:59:31.249Z,4.33
2018-05-21T20:01:59.748Z,4.53
2018-05-21T20:04:28.228Z,4.97
2018-05-21T20:06:56.744Z,4.27
2018-05-21T20:09:25.204Z,4.03
2018-05-21T20:11:53.757Z,4.43
2018-05-21T20:14:22.239Z,4.30
2018-05-21T20:16:50.800Z,4.40
2018-05-21T20:19:19.288Z,4.50
2018-05-21T20:21:47.817Z,4.20
2018-05-21T20:24:16.348Z,4.90
2018-05-21T20:26:44.821Z,4.60
2018-05-21T20:29:13.336Z,4.77
2018-05-21T20:31:41.841Z,4.50
2018-05-21T20:34:10.366Z,4.50
2018-05-21T20:36:38.902Z,4.40
2018-05-21T20:39:07.449Z,4.00
2018-05-21T20:41:35.983Z,4.37
2018-05-21T20:44:04.569Z,4.30
2018-05-21T20:46:33.048Z,4.43
2018-05-21T20:49:01.572Z,4.00
2018-05-21T20:51:30.066Z,4.10
2018-05-21T20:53:58.592Z,4.17
2018-05-21T20:56:27.119Z,13.80
2018-05-21T20:58:55.592Z,5.67
2018-05-21T21:01:24.131Z,4.53
2018-05-21T21:03:52.597Z,4.23
2018-05-21T21:06:21.084Z,4.10
2018-05-21T21:08:49.600Z,4.43
2018-05-21T21:11:18.432Z,4.00
2018-05-21T21:13:47.014Z,3.87
2018-05-21T21:16:15.497Z,4.07
2018-05-21T21:18:44.028Z,3.90
2018-05-21T21:21:12.564Z,4.40
2018-05-21T21:23:41.101Z,4.00
2018-05-21T21:26:09.607Z,3.87
2018-05-21T21:28:38.144Z,4.20
2018-05-21T21:31:06.643Z,3.50
2018-05-21T21:33:35.136Z,4.00
2018-05-21T21:36:03.670Z,3.73
2018-05-21T21:38:32.171Z,4.40
2018-05-21T21:41:00.629Z,4.30
2018-05-21T21:43:29.157Z,4.23
2018-05-21T21:45:57.650Z,4.07
2018-05-21T21:48:26.100Z,4.60
2018-05-21T21:50:54.593Z,4.80
2018-05-21T21:53:23.083Z,4.43
2018-05-21T21:55:51.541Z,4.63
2018-05-21T21:58:20.037Z,4.50
2018-05-21T22:00:48.630Z,4.40
2018-05-21T22:03:17.150Z,4.67
2018-05-21T22:05:45.636Z,5.10
2018-05-21T22:08:14.112Z,5.00
2018-05-21T22:10:42.648Z,4.97
2018-05-21T22:13:11.133Z,5.43
2018-05-21T22:15:39.605Z,5.53
2018-05-21T22:18:08.076Z,5.20
2018-05-21T22:20:36.628Z,4.60
2018-05-21T22:23:05.084Z,4.97
2018-05-21T22:25:33.578Z,4.83
2018-05-21T22:28:02.141Z,4.70
2018-05-21T22:30:30.696Z,4.47
2018-05-21T22:32:59.286Z,4.20
2018-05-21T22:35:27.819Z,4.40
2018-05-21T22:37:56.340Z,4.30
2018-05-21T22:40:24.821Z,4.90
2018-05-21T22:42:53.527Z,3.93
2018-05-21T22:45:22.092Z,4.40
2018-05-21T22:47:50.629Z,4.63
2018-05-21T22:50:19.115Z,5.03
2018-05-21T22:52:47.565Z,5.70
2018-05-21T22:55:16.045Z,5.80
2018-05-21T22:57:44.556Z,5.50
2018-05-21T23:00:13.065Z,6.03
2018-05-21T23:02:41.589Z,5.87
2018-05-21T23:05:10.108Z,6.33
2018-05-21T23:07:38.630Z,6.40
2018-05-21T23:10:07.162Z,6.90
2018-05-21T23:12:35.759Z,6.87
2018-05-21T23:15:04.306Z,6.07
2018-05-21T23:17:32.788Z,6.63
2018-05-21T23:20:01.296Z,6.10
2018-05-21T23:22:47.412Z,5.70
2018-05-21T23:25:15.928Z,5.73
2018-05-21T23:27:44.406Z,5.73
2018-05-21T23:30:12.927Z,5.23
2018-05-21T23:32:41.410Z,5.20
2018-05-21T23:35:09.921Z,4.97
2018-05-21T23:37:38.436Z,5.43
2018-05-21T23:40:06.974Z,5.60
2018-05-21T23:42:35.453Z,6.20
2018-05-21T23:45:04.029Z,5.37
2018-05-21T23:47:32.544Z,5.67
2018-05-21T23:50:01.036Z,5.80
2018-05-21T23:52:29.581Z,5.93
2018-05-21T23:54:58.069Z,5.50
2018-05-21T23:57:26.597Z,5.70
2018-05-21T23:59:55.077Z,6.20
